Time;durP1;ratioP1;P1;durP2;ratioP2;P2;SDS_P1;SDS_P2;PMS_P1;PMS_P2;Temp;Humidity;BMP_temperature;BMP_pressure;BME280_temperature;BME280_humidity;BME280_pressure;Samples;Min_cycle;Max_cycle;Signal;HPM_P1;HPM_P2
2019/09/01 00:00:41;;;;;;;5.01;4.20;;;;;;;23.78;60.94;99959.54;;;;-56
2019/09/01 00:03:40;;;;;;;5.57;4.15;;;;;;;23.78;60.95;99961.70;;;;-57
2019/09/01 00:06:40;;;;;;;5.85;4.47;;;;;;;23.77;60.94;99956.72;;;;-56
2019/09/01 00:09:40;;;;;;;4.57;4.17;;;;;;;23.77;60.92;99954.70;;;;-57
2019/09/01 00:12:40;;;;;;;4.89;4.36;;;;;;;23.77;60.93;99951.31;;;;-55
2019/09/01 00:15:40;;;;;;;4.92;4.26;;;;;;;23.76;60.96;99951.30;;;;-55
2019/09/01 00:18:40;;;;;;;4.78;4.28;;;;;;;23.76;60.97;99969.02;;;;-57
2019/09/01 00:21:40;;;;;;;4.72;4.07;;;;;;;23.76;60.99;99992.78;;;;-55
2019/09/01 00:24:40;;;;;;;4.73;4.12;;;;;;;23.76;61.02;100010.55;;;;-55
2019/09/01 00:27:40;;;;;;;4.41;4.01;;;;;;;23.75;61.00;100016.70;;;;-57
2019/09/01 00:30:40;;;;;;;5.99;4.32;;;;;;;23.75;60.95;100015.19;;;;-56
2019/09/01 00:33:40;;;;;;;4.59;4.16;;;;;;;23.74;60.98;100007.98;;;;-56
2019/09/01 00:36:40;;;;;;;4.95;4.18;;;;;;;23.75;60.96;100018.40;;;;-55
2019/09/01 00:39:40;;;;;;;4.41;3.90;;;;;;;23.75;61.00;100023.96;;;;-55
2019/09/01 00:42:40;;;;;;;4.55;4.15;;;;;;;23.74;61.00;100020.13;;;;-56
2019/09/01 00:45:40;;;;;;;5.23;4.15;;;;;;;23.74;60.99;100015.92;;;;-56
2019/09/01 00:48:40;;;;;;;4.20;3.80;;;;;;;23.74;60.99;100017.27;;;;-56
2019/09/01 00:51:40;;;;;;;4.85;4.13;;;;;;;23.73;61.00;100015.39;;;;-54
2019/09/01 00:54:40;;;;;;;5.17;4.25;;;;;;;23.72;61.03;100010.68;;;;-56
2019/09/01 00:57:40;;;;;;;4.26;3.63;;;;;;;23.73;60.97;100016.91;;;;-56
2019/09/01 01:00:40;;;;;;;4.79;4.04;;;;;;;23.72;60.97;100016.14;;;;-55
2019/09/01 01:03:40;;;;;;;4.50;3.97;;;;;;;23.72;61.00;100013.11;;;;-55
2019/09/01 01:06:40;;;;;;;4.73;3.74;;;;;;;23.71;60.96;100011.56;;;;-56
2019/09/01 01:09:40;;;;;;;4.39;3.97;;;;;;;23.71;60.96;100010.66;;;;-55
2019/09/01 01:12:40;;;;;;;4.50;3.95;;;;;;;23.71;60.97;100005.74;;;;-56
2019/09/01 01:15:40;;;;;;;4.75;3.88;;;;;;;23.71;60.97;100000.71;;;;-56
2019/09/01 01:18:40;;;;;;;4.51;3.76;;;;;;;23.70;61.00;99992.27;;;;-56
2019/09/01 01:21:40;;;;;;;5.74;4.05;;;;;;;23.71;60.95;99991.24;;;;-56
2019/09/01 01:24:40;;;;;;;4.30;3.89;;;;;;;23.70;61.00;99988.05;;;;-56
2019/09/01 01:27:40;;;;;;;4.37;3.96;;;;;;;23.70;60.99;99983.47;;;;-56
2019/09/01 01:30:40;;;;;;;4.40;4.00;;;;;;;23.70;60.98;99989.88;;;;-55
2019/09/01 01:33:40;;;;;;;4.89;3.81;;;;;;;23.69;60.99;99994.16;;;;-55
2019/09/01 01:36:40;;;;;;;4.20;3.80;;;;;;;23.69;61.00;99988.84;;;;-55
2019/09/01 01:39:40;;;;;;;4.63;3.87;;;;;;;23.69;60.99;99978.66;;;;-57
2019/09/01 01:42:40;;;;;;;4.22;3.69;;;;;;;23.68;60.99;99966.48;;;;-56
2019/09/01 01:45:40;;;;;;;3.99;3.65;;;;;;;23.68;60.97;99968.18;;;;-56
2019/09/01 01:48:40;;;;;;;3.87;3.43;;;;;;;23.67;60.97;99965.46;;;;-55
2019/09/01 01:51:40;;;;;;;3.99;3.63;;;;;;;23.68;61.03;99961.88;;;;-56
2019/09/01 01:54:40;;;;;;;4.55;3.55;;;;;;;23.68;61.00;99954.59;;;;-56
2019/09/01 01:57:40;;;;;;;4.05;3.44;;;;;;;23.67;60.95;99953.66;;;;-56
2019/09/01 02:00:40;;;;;;;4.12;3.72;;;;;;;23.66;60.97;99948.58;;;;-54
2019/09/01 02:03:40;;;;;;;4.16;3.73;;;;;;;23.67;60.96;99944.47;;;;-56
2019/09/01 02:06:40;;;;;;;3.89;3.49;;;;;;;23.67;61.01;99935.72;;;;-56
2019/09/01 02:09:40;;;;;;;3.89;3.51;;;;;;;23.67;61.02;99932.66;;;;-55
2019/09/01 02:12:40;;;;;;;3.83;3.53;;;;;;;23.66;60.98;99929.80;;;;-55
2019/09/01 02:15:40;;;;;;;4.32;3.89;;;;;;;23.66;61.01;99929.30;;;;-56
2019/09/01 02:18:40;;;;;;;3.91;3.53;;;;;;;23.66;60.99;99930.20;;;;-54
2019/09/01 02:21:40;;;;;;;4.02;3.63;;;;;;;23.66;61.00;99927.27;;;;-55
2019/09/01 02:24:40;;;;;;;4.61;3.85;;;;;;;23.66;60.97;99930.55;;;;-56
2019/09/01 02:27:40;;;;;;;4.15;3.55;;;;;;;23.66;60.97;99930.38;;;;-56
2019/09/01 02:30:40;;;;;;;4.07;3.67;;;;;;;23.66;60.98;99932.57;;;;-56
2019/09/01 02:33:40;;;;;;;4.23;3.83;;;;;;;23.66;61.00;99941.84;;;;-56
2019/09/01 02:36:40;;;;;;;3.84;3.54;;;;;;;23.65;61.01;99942.02;;;;-57
2019/09/01 02:39:40;;;;;;;3.90;3.57;;;;;;;23.66;61.00;99950.78;;;;-55
2019/09/01 02:42:40;;;;;;;5.15;3.48;;;;;;;23.65;60.99;99948.98;;;;-55
2019/09/01 02:45:40;;;;;;;3.79;3.49;;;;;;;23.65;60.99;99953.02;;;;-56
2019/09/01 02:48:40;;;;;;;3.72;3.42;;;;;;;23.65;61.01;99954.38;;;;-55
2019/09/01 02:51:40;;;;;;;3.95;3.54;;;;;;;23.65;61.03;99953.53;;;;-55
2019/09/01 02:54:40;;;;;;;3.89;3.44;;;;;;;23.65;60.97;99956.73;;;;-55
2019/09/01 02:57:40;;;;;;;3.93;3.51;;;;;;;23.64;61.00;99962.55;;;;-55
2019/09/01 03:00:40;;;;;;;4.04;3.64;;;;;;;23.64;61.00;99952.59;;;;-56
2019/09/01 03:03:40;;;;;;;3.85;3.50;;;;;;;23.64;60.99;99954.34;;;;-56
2019/09/01 03:06:40;;;;;;;3.93;3.40;;;;;;;23.64;60.96;99958.25;;;;-56
2019/09/01 03:09:40;;;;;;;3.50;3.20;;;;;;;23.64;61.00;99955.36;;;;-55
2019/09/01 03:12:40;;;;;;;3.75;3.44;;;;;;;23.64;60.97;99963.28;;;;-56
2019/09/01 03:15:40;;;;;;;3.71;3.41;;;;;;;23.63;61.00;99972.40;;;;-55
2019/09/01 03:18:40;;;;;;;3.71;3.39;;;;;;;23.64;61.00;99973.41;;;;-57
2019/09/01 03:21:40;;;;;;;4.13;3.53;;;;;;;23.63;61.00;99971.14;;;;-56
2019/09/01 03:24:40;;;;;;;3.71;3.38;;;;;;;23.63;61.02;99974.34;;;;-57
2019/09/01 03:27:40;;;;;;;3.57;3.27;;;;;;;23.63;61.03;99974.73;;;;-56
2019/09/01 03:30:40;;;;;;;3.59;3.29;;;;;;;23.62;61.00;99975.58;;;;-56
2019/09/01 03:33:40;;;;;;;3.55;3.11;;;;;;;23.62;60.98;99977.87;;;;-56
2019/09/01 03:36:40;;;;;;;3.62;3.32;;;;;;;23.62;61.01;99969.00;;;;-56
2019/09/01 03:39:40;;;;;;;3.79;3.40;;;;;;;23.62;61.00;99969.00;;;;-55
2019/09/01 03:42:40;;;;;;;4.18;3.30;;;;;;;23.62;60.98;99970.52;;;;-56
2019/09/01 03:45:40;;;;;;;4.34;3.59;;;;;;;23.62;61.01;99978.42;;;;-56
2019/09/01 03:48:40;;;;;;;3.49;3.19;;;;;;;23.62;61.02;99980.44;;;;-56
2019/09/01 03:51:40;;;;;;;3.72;3.35;;;;;;;23.62;60.97;99983.41;;;;-56
2019/09/01 03:54:40;;;;;;;3.48;3.18;;;;;;;23.61;61.00;99981.56;;;;-56
2019/09/01 03:57:40;;;;;;;4.52;3.35;;;;;;;23.61;61.00;99983.58;;;;-56
2019/09/01 04:00:40;;;;;;;4.09;3.03;;;;;;;23.61;61.00;99988.47;;;;-54
2019/09/01 04:03:40;;;;;;;3.60;3.30;;;;;;;23.61;61.03;99992.69;;;;-57
2019/09/01 04:06:40;;;;;;;3.51;3.21;;;;;;;23.61;60.98;100000.68;;;;-56
2019/09/01 04:09:40;;;;;;;3.37;3.07;;;;;;;23.61;61.01;100008.84;;;;-56
2019/09/01 04:12:40;;;;;;;3.49;3.19;;;;;;;23.61;60.99;100014.41;;;;-56
2019/09/01 04:15:40;;;;;;;3.51;3.21;;;;;;;23.61;61.03;100018.86;;;;-55
2019/09/01 04:18:40;;;;;;;3.51;3.21;;;;;;;23.61;61.00;100020.13;;;;-56
2019/09/01 04:21:40;;;;;;;3.71;3.41;;;;;;;23.61;61.00;100024.78;;;;-50
2019/09/01 04:24:40;;;;;;;3.49;3.19;;;;;;;23.60;60.99;100030.26;;;;-51
2019/09/01 04:27:40;;;;;;;3.53;3.23;;;;;;;23.61;61.00;100035.05;;;;-50
2019/09/01 04:30:40;;;;;;;3.61;3.21;;;;;;;23.60;61.03;100039.70;;;;-50
2019/09/01 04:33:40;;;;;;;3.37;3.07;;;;;;;23.60;61.02;100043.74;;;;-50
2019/09/01 04:36:40;;;;;;;3.45;3.12;;;;;;;23.60;61.01;100046.75;;;;-50
2019/09/01 04:39:40;;;;;;;3.59;3.29;;;;;;;23.60;60.96;100049.45;;;;-50
2019/09/01 04:42:40;;;;;;;3.87;2.97;;;;;;;23.60;61.00;100054.91;;;;-50
2019/09/01 04:45:40;;;;;;;3.47;3.17;;;;;;;23.60;60.99;100058.45;;;;-50
2019/09/01 04:48:40;;;;;;;3.44;3.14;;;;;;;23.59;61.04;100064.09;;;;-50
2019/09/01 04:51:40;;;;;;;3.36;3.09;;;;;;;23.59;61.01;100075.08;;;;-50
2019/09/01 04:54:40;;;;;;;6.13;3.65;;;;;;;23.57;61.20;100075.38;;;;-49
2019/09/01 04:57:40;;;;;;;5.17;4.67;;;;;;;23.55;60.75;100080.63;;;;-48
2019/09/01 05:00:40;;;;;;;5.38;4.70;;;;;;;23.53;60.66;100080.31;;;;-58
2019/09/01 05:03:40;;;;;;;5.16;4.69;;;;;;;23.54;60.80;100086.50;;;;-50
2019/09/01 05:06:40;;;;;;;6.10;5.11;;;;;;;23.50;60.56;100094.34;;;;-49
2019/09/01 05:09:40;;;;;;;6.18;5.48;;;;;;;23.43;60.32;100094.95;;;;-50
2019/09/01 05:12:40;;;;;;;6.90;5.95;;;;;;;23.37;60.25;100095.42;;;;-50
2019/09/01 05:15:40;;;;;;;6.67;5.91;;;;;;;23.34;60.29;100100.75;;;;-50
2019/09/01 05:18:40;;;;;;;6.99;6.29;;;;;;;23.31;60.42;100108.00;;;;-50
2019/09/01 05:21:40;;;;;;;7.05;6.13;;;;;;;23.27;60.56;100108.00;;;;-49
2019/09/01 05:24:40;;;;;;;7.53;6.06;;;;;;;23.26;60.69;100116.06;;;;-49
2019/09/01 05:27:40;;;;;;;6.76;5.77;;;;;;;23.25;60.63;100123.30;;;;-50
2019/09/01 05:30:40;;;;;;;7.28;5.97;;;;;;;23.24;60.70;100129.56;;;;-57
2019/09/01 05:33:40;;;;;;;6.99;6.29;;;;;;;23.28;60.61;100141.12;;;;-50
2019/09/01 05:36:40;;;;;;;7.23;6.13;;;;;;;23.29;60.63;100147.91;;;;-50
2019/09/01 05:39:40;;;;;;;6.98;6.18;;;;;;;23.32;60.59;100156.89;;;;-50
2019/09/01 05:42:40;;;;;;;7.16;6.27;;;;;;;23.32;60.62;100161.94;;;;-49
2019/09/01 05:45:40;;;;;;;7.03;6.29;;;;;;;23.31;60.66;100166.50;;;;-50
2019/09/01 05:48:40;;;;;;;6.97;6.09;;;;;;;23.32;60.65;100170.56;;;;-51
2019/09/01 05:51:40;;;;;;;7.55;6.19;;;;;;;23.35;60.59;100176.00;;;;-54
2019/09/01 05:54:40;;;;;;;7.49;5.89;;;;;;;23.34;60.65;100175.06;;;;-57
2019/09/01 05:57:40;;;;;;;6.79;6.19;;;;;;;23.34;60.70;100176.41;;;;-56
2019/09/01 06:00:40;;;;;;;7.31;5.99;;;;;;;23.33;60.74;100177.37;;;;-57
2019/09/01 06:03:40;;;;;;;6.95;6.26;;;;;;;23.32;60.69;100182.70;;;;-57
2019/09/01 06:06:40;;;;;;;7.33;6.26;;;;;;;23.34;60.70;100190.13;;;;-54
2019/09/01 06:09:40;;;;;;;6.97;6.27;;;;;;;23.36;60.68;100191.62;;;;-54
2019/09/01 06:12:40;;;;;;;7.02;6.32;;;;;;;23.38;60.62;100196.23;;;;-54
2019/09/01 06:15:40;;;;;;;7.67;6.01;;;;;;;23.39;60.57;100199.69;;;;-54
2019/09/01 06:18:40;;;;;;;7.69;6.60;;;;;;;23.41;60.49;100204.22;;;;-55
2019/09/01 06:21:40;;;;;;;7.56;6.15;;;;;;;23.38;60.63;100207.08;;;;-54
2019/09/01 06:24:40;;;;;;;7.65;6.49;;;;;;;23.38;60.65;100214.91;;;;-57
2019/09/01 06:27:40;;;;;;;7.46;6.27;;;;;;;23.39;60.63;100221.16;;;;-57
2019/09/01 06:30:40;;;;;;;8.04;6.48;;;;;;;23.39;60.66;100221.60;;;;-50
2019/09/01 06:33:40;;;;;;;6.98;6.25;;;;;;;23.37;60.81;100227.11;;;;-54
2019/09/01 06:36:40;;;;;;;8.25;6.54;;;;;;;23.36;60.87;100228.67;;;;-54
2019/09/01 06:39:40;;;;;;;7.49;6.34;;;;;;;23.37;60.84;100229.88;;;;-49
2019/09/01 06:42:40;;;;;;;8.14;6.67;;;;;;;23.37;60.87;100233.86;;;;-50
2019/09/01 06:45:40;;;;;;;7.25;6.55;;;;;;;23.37;60.92;100236.28;;;;-49
2019/09/01 06:48:40;;;;;;;8.21;6.32;;;;;;;23.35;61.00;100240.37;;;;-54
2019/09/01 06:51:40;;;;;;;7.71;6.81;;;;;;;23.36;61.10;100247.55;;;;-54
2019/09/01 06:54:40;;;;;;;7.43;6.54;;;;;;;23.37;61.00;100252.39;;;;-54
2019/09/01 06:57:40;;;;;;;8.48;6.65;;;;;;;23.36;61.20;100254.39;;;;-54
2019/09/01 07:00:40;;;;;;;10.16;6.83;;;;;;;23.35;61.25;100264.88;;;;-54
2019/09/01 07:03:40;;;;;;;8.81;6.77;;;;;;;23.35;61.29;100267.23;;;;-50
2019/09/01 07:06:40;;;;;;;8.79;7.27;;;;;;;23.32;61.46;100273.19;;;;-54
2019/09/01 07:09:40;;;;;;;7.87;6.97;;;;;;;23.31;61.45;100276.36;;;;-54
2019/09/01 07:12:40;;;;;;;8.30;6.70;;;;;;;23.32;61.37;100275.72;;;;-54
2019/09/01 07:15:40;;;;;;;7.26;6.56;;;;;;;23.33;61.29;100281.78;;;;-54
2019/09/01 07:18:40;;;;;;;7.93;6.33;;;;;;;23.31;61.30;100290.92;;;;-54
2019/09/01 07:21:40;;;;;;;7.29;6.58;;;;;;;23.33;61.20;100295.00;;;;-54
2019/09/01 07:24:40;;;;;;;7.85;6.74;;;;;;;23.32;61.17;100295.09;;;;-54
2019/09/01 07:27:40;;;;;;;7.63;6.32;;;;;;;23.33;61.18;100307.80;;;;-57
2019/09/01 07:30:40;;;;;;;8.53;6.63;;;;;;;23.35;61.13;100314.09;;;;-57
2019/09/01 07:33:40;;;;;;;7.01;6.29;;;;;;;23.32;61.09;100317.75;;;;-57
2019/09/01 07:36:40;;;;;;;8.69;6.52;;;;;;;23.28;61.20;100320.34;;;;-56
2019/09/01 07:39:40;;;;;;;7.15;6.39;;;;;;;23.32;61.10;100322.63;;;;-49
2019/09/01 07:42:40;;;;;;;7.37;6.61;;;;;;;23.34;61.08;100323.33;;;;-49
2019/09/01 07:45:40;;;;;;;13.11;6.61;;;;;;;23.37;61.05;100327.22;;;;-49
2019/09/01 07:48:40;;;;;;;11.21;6.58;;;;;;;23.38;60.94;100333.41;;;;-50
2019/09/01 07:51:40;;;;;;;10.75;6.35;;;;;;;23.40;60.87;100331.92;;;;-49
2019/09/01 07:54:40;;;;;;;9.90;6.49;;;;;;;23.40;60.77;100337.31;;;;-49
2019/09/01 07:57:40;;;;;;;8.47;6.50;;;;;;;23.39;60.70;100335.09;;;;-50
2019/09/01 08:00:40;;;;;;;7.35;6.27;;;;;;;23.38;60.72;100335.50;;;;-49
2019/09/01 08:03:40;;;;;;;7.29;6.35;;;;;;;23.40;60.47;100335.89;;;;-57
2019/09/01 08:06:40;;;;;;;8.93;6.23;;;;;;;23.41;60.29;100337.20;;;;-50
2019/09/01 08:09:40;;;;;;;7.89;6.15;;;;;;;23.42;60.23;100335.84;;;;-50
2019/09/01 08:12:40;;;;;;;6.95;5.76;;;;;;;23.40;60.18;100332.28;;;;-54
2019/09/01 08:15:40;;;;;;;8.15;5.73;;;;;;;23.41;60.01;100326.14;;;;-54
2019/09/01 08:18:40;;;;;;;8.03;6.15;;;;;;;23.43;59.85;100326.77;;;;-57
2019/09/01 08:21:40;;;;;;;7.77;5.99;;;;;;;23.45;59.86;100327.66;;;;-51
2019/09/01 08:24:40;;;;;;;9.80;5.76;;;;;;;23.46;60.15;100327.45;;;;-47
2019/09/01 08:27:40;;;;;;;10.96;5.73;;;;;;;23.48;60.07;100331.63;;;;-53
2019/09/01 08:30:40;;;;;;;7.58;5.69;;;;;;;23.48;60.04;100334.75;;;;-53
2019/09/01 08:33:40;;;;;;;8.62;5.81;;;;;;;23.51;60.21;100333.66;;;;-50
2019/09/01 08:36:40;;;;;;;7.87;5.95;;;;;;;23.53;60.26;100340.45;;;;-50
2019/09/01 08:39:40;;;;;;;6.39;5.69;;;;;;;23.54;60.25;100330.59;;;;-45
2019/09/01 08:42:40;;;;;;;8.07;5.61;;;;;;;23.56;60.29;100325.42;;;;-50
2019/09/01 08:45:40;;;;;;;8.09;5.60;;;;;;;23.58;60.34;100327.26;;;;-54
2019/09/01 08:48:40;;;;;;;8.21;5.62;;;;;;;23.58;60.27;100324.89;;;;-54
2019/09/01 08:51:40;;;;;;;8.54;5.35;;;;;;;23.59;60.35;100329.98;;;;-57
2019/09/01 08:54:40;;;;;;;6.55;5.22;;;;;;;23.60;60.72;100326.44;;;;-57
2019/09/01 08:57:40;;;;;;;8.36;5.69;;;;;;;23.61;60.67;100324.77;;;;-56
2019/09/01 09:00:40;;;;;;;6.12;5.30;;;;;;;23.62;60.67;100329.55;;;;-48
2019/09/01 09:03:40;;;;;;;8.06;5.58;;;;;;;23.63;60.62;100339.93;;;;-48
2019/09/01 09:06:40;;;;;;;6.41;5.68;;;;;;;23.63;60.68;100337.81;;;;-58
2019/09/01 09:09:40;;;;;;;5.91;5.13;;;;;;;23.63;60.71;100341.78;;;;-49
2019/09/01 09:12:40;;;;;;;7.37;5.43;;;;;;;23.63;60.69;100346.27;;;;-58
2019/09/01 09:15:40;;;;;;;6.01;5.17;;;;;;;23.63;60.75;100349.27;;;;-57
2019/09/01 09:18:40;;;;;;;7.80;5.23;;;;;;;23.63;60.67;100345.97;;;;-57
2019/09/01 09:21:40;;;;;;;6.23;5.17;;;;;;;23.63;60.80;100348.36;;;;-50
2019/09/01 09:24:40;;;;;;;8.18;5.15;;;;;;;23.66;60.82;100351.78;;;;-60
2019/09/01 09:27:40;;;;;;;6.73;5.50;;;;;;;23.67;60.78;100353.69;;;;-45
2019/09/01 09:30:40;;;;;;;5.87;5.11;;;;;;;23.69;60.81;100347.67;;;;-55
2019/09/01 09:33:40;;;;;;;5.42;4.91;;;;;;;23.71;60.85;100351.83;;;;-56
2019/09/01 09:36:40;;;;;;;6.17;5.17;;;;;;;23.72;60.87;100353.55;;;;-51
2019/09/01 09:39:40;;;;;;;6.37;5.32;;;;;;;23.73;61.02;100354.16;;;;-53
2019/09/01 09:42:40;;;;;;;5.37;4.83;;;;;;;23.74;61.04;100361.02;;;;-50
2019/09/01 09:45:40;;;;;;;5.99;4.92;;;;;;;23.77;60.92;100360.66;;;;-51
2019/09/01 09:48:40;;;;;;;6.03;4.79;;;;;;;23.77;60.88;100367.74;;;;-51
2019/09/01 09:51:40;;;;;;;8.47;4.84;;;;;;;23.78;61.01;100368.87;;;;-57
2019/09/01 09:54:40;;;;;;;7.82;5.28;;;;;;;23.79;61.02;100364.72;;;;-57
2019/09/01 09:57:40;;;;;;;6.33;5.37;;;;;;;23.81;60.92;100364.34;;;;-56
2019/09/01 10:00:40;;;;;;;6.55;5.02;;;;;;;23.82;60.91;100372.52;;;;-45
2019/09/01 10:03:40;;;;;;;7.83;4.99;;;;;;;23.82;60.95;100373.47;;;;-46
2019/09/01 10:06:40;;;;;;;6.38;4.81;;;;;;;23.83;60.95;100371.47;;;;-46
2019/09/01 10:09:40;;;;;;;10.47;5.04;;;;;;;23.83;60.78;100371.23;;;;-47
2019/09/01 10:12:40;;;;;;;7.48;4.86;;;;;;;23.84;60.84;100369.64;;;;-48
2019/09/01 10:15:40;;;;;;;5.86;5.09;;;;;;;23.85;60.78;100366.02;;;;-57
2019/09/01 10:18:40;;;;;;;5.19;4.65;;;;;;;23.85;60.60;100370.68;;;;-53
2019/09/01 10:21:40;;;;;;;6.49;4.96;;;;;;;23.85;60.74;100365.28;;;;-58
2019/09/01 10:24:40;;;;;;;5.87;4.46;;;;;;;23.86;60.96;100369.18;;;;-54
2019/09/01 10:27:40;;;;;;;6.75;4.69;;;;;;;23.87;60.81;100368.37;;;;-49
2019/09/01 10:30:40;;;;;;;5.61;4.91;;;;;;;23.87;60.72;100363.64;;;;-48
2019/09/01 10:33:40;;;;;;;5.13;4.51;;;;;;;23.87;60.71;100361.95;;;;-54
2019/09/01 10:36:40;;;;;;;7.44;4.66;;;;;;;23.87;60.62;100368.12;;;;-54
2019/09/01 10:39:40;;;;;;;8.92;4.75;;;;;;;23.87;60.69;100366.44;;;;-49
2019/09/01 10:42:40;;;;;;;8.75;4.63;;;;;;;23.90;60.63;100370.63;;;;-57
2019/09/01 10:45:40;;;;;;;7.83;4.45;;;;;;;23.91;60.57;100369.30;;;;-44
2019/09/01 10:48:40;;;;;;;7.13;4.54;;;;;;;23.92;60.48;100368.05;;;;-51
2019/09/01 10:51:40;;;;;;;5.86;4.44;;;;;;;23.92;60.42;100368.83;;;;-56
2019/09/01 10:54:40;;;;;;;8.17;4.56;;;;;;;23.92;60.36;100372.30;;;;-48
2019/09/01 10:57:40;;;;;;;7.09;4.49;;;;;;;23.91;60.49;100365.84;;;;-48
2019/09/01 11:00:40;;;;;;;7.99;4.52;;;;;;;23.90;60.87;100370.73;;;;-47
2019/09/01 11:03:40;;;;;;;6.76;4.37;;;;;;;23.91;60.68;100370.59;;;;-56
2019/09/01 11:06:40;;;;;;;7.55;4.33;;;;;;;23.91;60.66;100367.28;;;;-57
2019/09/01 11:09:40;;;;;;;9.43;4.33;;;;;;;23.92;60.62;100377.19;;;;-48
2019/09/01 11:12:40;;;;;;;7.65;4.48;;;;;;;23.91;60.68;100377.41;;;;-48
2019/09/01 11:15:40;;;;;;;6.68;4.69;;;;;;;23.91;60.67;100382.56;;;;-57
2019/09/01 11:18:40;;;;;;;7.59;4.06;;;;;;;23.91;60.61;100381.86;;;;-58
2019/09/01 11:21:40;;;;;;;8.11;4.47;;;;;;;23.91;60.61;100384.56;;;;-58
2019/09/01 11:24:40;;;;;;;5.29;4.10;;;;;;;23.91;60.57;100390.47;;;;-57
2019/09/01 11:27:40;;;;;;;6.95;4.10;;;;;;;23.91;60.55;100387.93;;;;-48
2019/09/01 11:30:40;;;;;;;6.41;4.57;;;;;;;23.89;60.55;100394.76;;;;-57
2019/09/01 11:33:40;;;;;;;8.97;4.52;;;;;;;23.90;60.50;100405.89;;;;-57
2019/09/01 11:36:40;;;;;;;5.90;4.19;;;;;;;23.89;60.51;100394.62;;;;-55
2019/09/01 11:39:40;;;;;;;5.57;4.16;;;;;;;23.88;60.49;100391.67;;;;-57
2019/09/01 11:42:40;;;;;;;7.01;4.35;;;;;;;23.89;60.46;100400.30;;;;-56
2019/09/01 11:45:40;;;;;;;5.97;4.25;;;;;;;23.88;60.38;100398.08;;;;-57
2019/09/01 11:48:40;;;;;;;5.71;4.06;;;;;;;23.88;60.40;100404.55;;;;-57
2019/09/01 11:51:40;;;;;;;4.93;3.98;;;;;;;23.88;60.37;100402.70;;;;-57
2019/09/01 11:54:40;;;;;;;6.44;3.77;;;;;;;23.87;60.36;100409.78;;;;-56
2019/09/01 11:57:40;;;;;;;5.29;3.84;;;;;;;23.87;60.33;100401.52;;;;-57
2019/09/01 12:00:40;;;;;;;4.81;3.97;;;;;;;23.87;60.31;100400.25;;;;-57
2019/09/01 12:03:40;;;;;;;5.39;3.88;;;;;;;23.87;60.30;100401.09;;;;-57
2019/09/01 12:06:40;;;;;;;4.22;3.81;;;;;;;23.87;60.32;100405.06;;;;-57
2019/09/01 12:09:40;;;;;;;5.48;3.73;;;;;;;23.86;60.31;100403.02;;;;-57
2019/09/01 12:12:40;;;;;;;13.97;4.13;;;;;;;23.87;60.37;100402.61;;;;-53
2019/09/01 12:15:40;;;;;;;8.42;3.71;;;;;;;23.88;60.26;100403.03;;;;-58
2019/09/01 12:18:40;;;;;;;6.21;3.68;;;;;;;23.89;60.40;100401.64;;;;-54
2019/09/01 12:21:40;;;;;;;5.43;3.63;;;;;;;23.91;60.41;100401.80;;;;-56
2019/09/01 12:24:40;;;;;;;5.33;3.87;;;;;;;23.92;60.42;100393.12;;;;-47
2019/09/01 12:27:40;;;;;;;7.21;3.55;;;;;;;23.93;60.51;100396.08;;;;-53
2019/09/01 12:30:40;;;;;;;10.76;4.03;;;;;;;23.94;60.46;100396.03;;;;-55
2019/09/01 12:33:40;;;;;;;6.70;3.73;;;;;;;23.94;60.46;100390.63;;;;-52
2019/09/01 12:36:40;;;;;;;4.96;3.82;;;;;;;23.95;60.46;100388.88;;;;-52
2019/09/01 12:39:40;;;;;;;5.29;3.73;;;;;;;23.96;60.47;100387.65;;;;-52
2019/09/01 12:42:40;;;;;;;7.59;3.71;;;;;;;23.97;60.50;100389.94;;;;-52
2019/09/01 12:45:40;;;;;;;5.98;3.43;;;;;;;23.97;60.53;100380.76;;;;-47
2019/09/01 12:48:40;;;;;;;5.45;3.33;;;;;;;23.98;60.59;100378.76;;;;-50
2019/09/01 12:51:40;;;;;;;5.39;3.59;;;;;;;23.98;60.66;100374.38;;;;-53
2019/09/01 12:54:40;;;;;;;4.05;3.47;;;;;;;23.99;60.47;100370.76;;;;-53
2019/09/01 12:57:40;;;;;;;12.55;3.50;;;;;;;23.98;60.62;100379.43;;;;-56
2019/09/01 13:00:40;;;;;;;8.27;3.65;;;;;;;24.00;60.59;100376.95;;;;-55
2019/09/01 13:03:40;;;;;;;9.99;3.25;;;;;;;24.00;60.60;100369.70;;;;-54
2019/09/01 13:06:40;;;;;;;5.53;3.50;;;;;;;24.02;60.51;100373.36;;;;-53
2019/09/01 13:09:40;;;;;;;5.13;3.35;;;;;;;24.01;60.63;100369.73;;;;-47
2019/09/01 13:12:40;;;;;;;6.69;3.39;;;;;;;24.02;60.63;100379.09;;;;-51
2019/09/01 13:15:40;;;;;;;9.47;3.63;;;;;;;24.04;60.51;100377.28;;;;-50
2019/09/01 13:18:40;;;;;;;5.19;3.35;;;;;;;24.04;60.55;100372.56;;;;-56
2019/09/01 13:21:40;;;;;;;4.47;3.26;;;;;;;24.05;60.64;100374.78;;;;-51
2019/09/01 13:24:40;;;;;;;4.41;3.72;;;;;;;24.05;60.60;100371.50;;;;-47
2019/09/01 13:27:40;;;;;;;11.49;3.69;;;;;;;24.07;60.72;100372.80;;;;-47
2019/09/01 13:30:40;;;;;;;6.13;3.44;;;;;;;24.07;60.54;100371.22;;;;-47
2019/09/01 13:33:40;;;;;;;8.36;3.55;;;;;;;24.07;60.64;100368.59;;;;-56
2019/09/01 13:36:40;;;;;;;6.26;3.49;;;;;;;24.08;60.53;100366.59;;;;-49
2019/09/01 13:39:40;;;;;;;9.50;3.57;;;;;;;24.08;60.62;100363.64;;;;-57
2019/09/01 13:42:40;;;;;;;5.60;3.31;;;;;;;24.09;60.58;100366.34;;;;-57
2019/09/01 13:45:40;;;;;;;9.25;3.65;;;;;;;24.08;60.33;100366.15;;;;-58
2019/09/01 13:48:40;;;;;;;7.70;3.50;;;;;;;24.07;60.47;100361.33;;;;-48
2019/09/01 13:51:40;;;;;;;7.47;3.27;;;;;;;24.08;60.47;100367.44;;;;-47
2019/09/01 13:54:40;;;;;;;5.43;3.36;;;;;;;24.04;60.55;100366.59;;;;-53
2019/09/01 13:57:40;;;;;;;7.21;3.22;;;;;;;24.05;60.28;100367.45;;;;-52
2019/09/01 14:00:40;;;;;;;6.95;3.36;;;;;;;24.06;60.02;100366.64;;;;-50
2019/09/01 14:03:40;;;;;;;7.86;3.64;;;;;;;24.06;60.22;100368.66;;;;-49
2019/09/01 14:06:40;;;;;;;6.70;3.10;;;;;;;24.06;60.26;100367.95;;;;-50
2019/09/01 14:09:40;;;;;;;9.30;3.30;;;;;;;24.05;60.32;100366.02;;;;-49
2019/09/01 14:12:40;;;;;;;7.91;3.27;;;;;;;24.04;60.27;100373.17;;;;-51
2019/09/01 14:15:40;;;;;;;7.29;3.25;;;;;;;24.04;60.28;100373.24;;;;-49
2019/09/01 14:18:40;;;;;;;6.87;3.39;;;;;;;24.04;60.28;100371.55;;;;-50
2019/09/01 14:21:40;;;;;;;6.79;3.28;;;;;;;24.03;60.29;100368.42;;;;-59
2019/09/01 14:24:40;;;;;;;5.49;3.31;;;;;;;24.02;60.23;100368.39;;;;-57
2019/09/01 14:27:40;;;;;;;4.91;3.06;;;;;;;24.03;60.25;100365.63;;;;-58
2019/09/01 14:30:40;;;;;;;4.97;2.97;;;;;;;24.02;60.21;100368.30;;;;-50
2019/09/01 14:33:40;;;;;;;4.27;3.05;;;;;;;24.02;60.22;100365.77;;;;-50
2019/09/01 14:36:40;;;;;;;5.22;2.85;;;;;;;24.01;60.25;100362.63;;;;-50
2019/09/01 14:39:40;;;;;;;4.96;2.83;;;;;;;24.01;60.19;100359.09;;;;-58
2019/09/01 14:42:40;;;;;;;5.61;3.13;;;;;;;24.01;60.23;100357.73;;;;-57
2019/09/01 14:45:40;;;;;;;6.07;3.07;;;;;;;24.00;60.22;100358.23;;;;-58
2019/09/01 14:48:40;;;;;;;4.46;3.07;;;;;;;24.00;60.21;100363.45;;;;-59
2019/09/01 14:51:40;;;;;;;4.93;2.98;;;;;;;24.00;60.21;100364.37;;;;-51
2019/09/01 14:54:40;;;;;;;4.83;3.13;;;;;;;24.00;60.17;100366.23;;;;-57
2019/09/01 14:57:40;;;;;;;4.92;2.95;;;;;;;24.00;60.17;100371.12;;;;-57
2019/09/01 15:00:40;;;;;;;4.11;3.08;;;;;;;23.99;60.16;100373.21;;;;-51
2019/09/01 15:03:40;;;;;;;4.35;2.98;;;;;;;23.99;60.19;100369.67;;;;-50
2019/09/01 15:06:40;;;;;;;4.67;3.00;;;;;;;23.99;60.15;100370.76;;;;-58
2019/09/01 15:09:40;;;;;;;3.15;2.80;;;;;;;23.98;60.16;100373.09;;;;-50
2019/09/01 15:12:40;;;;;;;9.83;3.19;;;;;;;23.98;60.17;100372.01;;;;-58
2019/09/01 15:15:40;;;;;;;6.43;2.85;;;;;;;24.00;60.20;100372.30;;;;-51
2019/09/01 15:18:40;;;;;;;4.52;2.78;;;;;;;24.01;60.15;100373.09;;;;-49
2019/09/01 15:21:40;;;;;;;2.78;2.34;;;;;;;24.03;60.19;100368.09;;;;-53
2019/09/01 15:24:40;;;;;;;4.81;2.91;;;;;;;24.04;60.22;100372.56;;;;-54
2019/09/01 15:27:45;;;;;;;4.49;2.75;;;;;;;24.05;60.29;100365.84;;;;-56
2019/09/01 15:30:56;;;;;;;3.12;2.68;;;;;;;24.06;60.29;100364.52;;;;-51
2019/09/01 15:33:46;;;;;;;7.33;2.94;;;;;;;24.06;60.33;100368.40;;;;-54
2019/09/01 15:37:25;;;;;;;8.63;2.82;;;;;;;24.08;60.37;100371.66;;;;-51
2019/09/01 15:39:58;;;;;;;5.47;2.75;;;;;;;24.08;60.41;100376.37;;;;-54
2019/09/01 15:42:45;;;;;;;4.45;2.55;;;;;;;24.08;60.26;100382.27;;;;-45
2019/09/01 15:45:40;;;;;;;7.17;2.59;;;;;;;24.09;60.29;100385.84;;;;-52
2019/09/01 15:48:40;;;;;;;5.80;2.82;;;;;;;24.10;60.41;100396.09;;;;-55
2019/09/01 15:51:40;;;;;;;7.01;2.67;;;;;;;24.11;60.39;100390.45;;;;-56
2019/09/01 15:54:40;;;;;;;6.11;2.80;;;;;;;24.10;60.34;100395.99;;;;-54
2019/09/01 15:57:40;;;;;;;5.53;2.71;;;;;;;24.11;60.40;100398.21;;;;-53
2019/09/01 16:00:40;;;;;;;6.16;2.69;;;;;;;24.12;60.24;100400.60;;;;-51
2019/09/01 16:03:40;;;;;;;11.80;2.93;;;;;;;24.13;60.29;100402.48;;;;-56
2019/09/01 16:06:40;;;;;;;11.58;2.71;;;;;;;24.12;59.97;100403.73;;;;-47
2019/09/01 16:09:40;;;;;;;5.43;2.51;;;;;;;24.13;60.24;100405.28;;;;-57
2019/09/01 16:12:40;;;;;;;9.15;2.77;;;;;;;24.14;60.28;100404.70;;;;-53
2019/09/01 16:15:40;;;;;;;8.21;2.87;;;;;;;24.15;60.29;100405.73;;;;-56
2019/09/01 16:18:40;;;;;;;9.05;2.83;;;;;;;24.16;60.30;100412.24;;;;-47
2019/09/01 16:21:40;;;;;;;8.04;2.64;;;;;;;24.15;60.33;100414.61;;;;-57
2019/09/01 16:24:40;;;;;;;6.37;2.75;;;;;;;24.16;60.34;100416.46;;;;-47
2019/09/01 16:27:40;;;;;;;5.84;2.53;;;;;;;24.16;60.34;100425.41;;;;-56
2019/09/01 16:30:40;;;;;;;6.22;2.73;;;;;;;24.16;60.40;100427.29;;;;-52
2019/09/01 16:33:40;;;;;;;7.91;2.64;;;;;;;24.17;60.44;100423.74;;;;-45
2019/09/01 16:36:40;;;;;;;6.81;2.61;;;;;;;24.17;60.37;100423.16;;;;-47
2019/09/01 16:39:40;;;;;;;5.75;2.48;;;;;;;24.17;60.31;100419.35;;;;-46
2019/09/01 16:42:40;;;;;;;7.62;2.59;;;;;;;24.17;60.34;100421.55;;;;-53